createdAt,value
2022-11-08T00:02:13.338Z,80.80
2022-11-08T00:04:39.986Z,83.60
2022-11-08T00:07:25.062Z,85.20
2022-11-08T00:10:10.009Z,85.10
2022-11-08T00:12:55.136Z,85.20
2022-11-08T00:15:21.737Z,85.10
2022-11-08T00:17:48.363Z,81.60
2022-11-08T00:20:15.027Z,80.10
2022-11-08T00:22:41.632Z,79.20
2022-11-08T00:25:08.616Z,78.90
2022-11-08T00:27:35.168Z,78.10
2022-11-08T00:30:01.738Z,76.70
2022-11-08T00:32:28.379Z,76.70
2022-11-08T00:34:54.955Z,76.60
2022-11-08T00:37:22.213Z,76.60
2022-11-08T00:39:48.776Z,76.50
2022-11-08T00:42:15.363Z,76.50
2022-11-08T00:44:42.004Z,76.50
2022-11-08T00:47:08.625Z,76.40
2022-11-08T00:49:35.326Z,76.40
2022-11-08T00:52:01.915Z,80.60
2022-11-08T00:54:28.451Z,83.50
2022-11-08T00:56:55.072Z,85.40
2022-11-08T00:59:21.639Z,84.50
2022-11-08T01:01:48.473Z,84.50
2022-11-08T01:04:17.390Z,84.00
2022-11-08T01:06:44.383Z,83.50
2022-11-08T01:09:11.329Z,82.70
2022-11-08T01:11:38.302Z,82.60
2022-11-08T01:14:04.889Z,82.10
2022-11-08T01:16:32.580Z,80.80
2022-11-08T01:18:59.515Z,80.40
2022-11-08T01:21:26.765Z,80.80
2022-11-08T01:23:56.697Z,81.10
2022-11-08T01:26:24.843Z,81.60
2022-11-08T01:28:51.449Z,80.80
2022-11-08T01:31:19.393Z,79.70
2022-11-08T01:33:51.051Z,78.60
2022-11-08T01:36:18.897Z,78.40
2022-11-08T01:38:45.456Z,78.00
2022-11-08T01:41:13.555Z,78.10
2022-11-08T01:43:44.099Z,78.80
2022-11-08T01:46:16.681Z,80.00
2022-11-08T01:48:52.358Z,80.10
2022-11-08T01:51:20.842Z,81.50
2022-11-08T01:53:47.561Z,81.70
2022-11-08T01:56:14.479Z,82.10
2022-11-08T01:58:42.377Z,81.70
2022-11-08T02:01:09.779Z,82.00
2022-11-08T02:03:36.474Z,82.50
2022-11-08T02:06:03.691Z,84.10
2022-11-08T02:08:37.562Z,87.20
2022-11-08T02:11:05.072Z,90.30
2022-11-08T02:13:32.610Z,90.90
2022-11-08T02:15:59.358Z,90.90
2022-11-08T02:18:30.134Z,90.90
2022-11-08T02:21:02.970Z,91.40
2022-11-08T02:23:32.248Z,91.50
2022-11-08T02:25:58.797Z,91.80
2022-11-08T02:28:25.317Z,92.40
2022-11-08T02:30:51.933Z,92.70
2022-11-08T02:33:19.590Z,92.70
2022-11-08T02:35:48.269Z,92.60
2022-11-08T02:38:15.076Z,92.30
2022-11-08T02:40:52.038Z,92.20
2022-11-08T02:43:18.639Z,92.00
2022-11-08T02:45:45.541Z,91.40
2022-11-08T02:48:12.858Z,91.40
2022-11-08T02:50:39.668Z,91.10
2022-11-08T02:53:06.306Z,91.10
2022-11-08T02:55:33.373Z,91.10
2022-11-08T02:58:00.200Z,91.10
2022-11-08T03:00:27.071Z,91.00
2022-11-08T03:02:57.503Z,91.00
2022-11-08T03:05:24.553Z,91.00
2022-11-08T03:07:51.176Z,91.00
2022-11-08T03:10:17.966Z,91.00
2022-11-08T03:12:44.512Z,91.00
2022-11-08T03:15:12.123Z,91.10
2022-11-08T03:17:39.035Z,90.30
2022-11-08T03:20:05.866Z,90.30
2022-11-08T03:22:32.443Z,90.30
2022-11-08T03:24:59.085Z,90.00
2022-11-08T03:27:25.650Z,89.40
2022-11-08T03:29:52.191Z,88.90
2022-11-08T03:32:18.948Z,88.80
2022-11-08T03:34:45.477Z,88.60
2022-11-08T03:37:12.032Z,88.30
2022-11-08T03:39:38.571Z,88.90
2022-11-08T03:42:05.390Z,88.90
2022-11-08T03:44:32.367Z,89.30
2022-11-08T03:46:59.339Z,89.90
2022-11-08T03:49:26.707Z,90.10
2022-11-08T03:51:54.048Z,90.50
2022-11-08T03:54:20.615Z,90.80
2022-11-08T03:56:47.569Z,90.40
2022-11-08T03:59:14.144Z,90.60
2022-11-08T04:01:40.912Z,90.20
2022-11-08T04:04:07.573Z,90.20
2022-11-08T04:06:34.140Z,90.20
2022-11-08T04:09:00.684Z,90.20
2022-11-08T04:11:45.822Z,90.30
2022-11-08T04:14:31.092Z,90.20
2022-11-08T04:16:57.609Z,90.10
2022-11-08T04:19:42.751Z,90.20
2022-11-08T04:22:10.834Z,90.00
2022-11-08T04:24:37.604Z,88.90
2022-11-08T04:27:04.235Z,88.10
2022-11-08T04:29:30.853Z,88.10
2022-11-08T04:31:57.571Z,88.10
2022-11-08T04:34:24.081Z,88.50
2022-11-08T04:36:50.631Z,89.20
2022-11-08T04:39:17.424Z,89.20
2022-11-08T04:41:43.989Z,90.00
2022-11-08T04:44:11.707Z,90.20
2022-11-08T04:46:38.267Z,90.40
2022-11-08T04:49:04.888Z,90.00
2022-11-08T04:51:32.294Z,90.00
2022-11-08T04:54:00.210Z,90.10
2022-11-08T04:56:28.002Z,90.10
2022-11-08T04:58:55.714Z,90.20
2022-11-08T05:01:23.652Z,90.10
2022-11-08T05:03:50.870Z,90.40
2022-11-08T05:06:19.070Z,90.30
2022-11-08T05:08:45.929Z,90.40
2022-11-08T05:11:14.028Z,90.00
2022-11-08T05:13:40.897Z,90.10
2022-11-08T05:16:15.016Z,90.40
2022-11-08T05:18:42.138Z,90.80
2022-11-08T05:21:28.771Z,90.80
2022-11-08T05:23:55.306Z,90.80
2022-11-08T05:26:21.943Z,90.80
2022-11-08T05:28:48.537Z,90.80
2022-11-08T05:31:15.535Z,90.70
2022-11-08T05:33:42.169Z,90.70
2022-11-08T05:36:12.717Z,90.80
2022-11-08T05:38:39.718Z,90.70
2022-11-08T05:41:13.587Z,90.80
2022-11-08T05:43:40.165Z,90.70
2022-11-08T05:46:07.179Z,90.70
2022-11-08T05:48:34.164Z,90.70
2022-11-08T05:51:01.145Z,90.50
2022-11-08T05:53:28.035Z,90.30
2022-11-08T05:56:01.402Z,90.10
2022-11-08T05:58:28.102Z,90.10
2022-11-08T06:01:04.632Z,90.30
2022-11-08T06:03:31.781Z,90.10
2022-11-08T06:06:05.680Z,90.40
2022-11-08T06:08:32.260Z,90.20
2022-11-08T06:11:02.474Z,90.40
2022-11-08T06:13:29.392Z,89.90
2022-11-08T06:15:59.203Z,90.10
2022-11-08T06:18:25.747Z,90.00
2022-11-08T06:20:52.281Z,90.10
2022-11-08T06:23:19.146Z,89.80
2022-11-08T06:25:47.652Z,89.60
2022-11-08T06:28:14.757Z,89.20
2022-11-08T06:30:41.433Z,88.60
2022-11-08T06:33:08.117Z,87.70
2022-11-08T06:35:36.089Z,87.50
2022-11-08T06:38:08.173Z,86.10
2022-11-08T06:40:36.966Z,85.10
2022-11-08T06:43:03.549Z,85.50
2022-11-08T06:45:30.121Z,86.10
2022-11-08T06:47:58.111Z,85.70
2022-11-08T06:50:24.795Z,86.60
2022-11-08T06:53:07.697Z,85.40
2022-11-08T06:55:34.949Z,85.00
2022-11-08T06:58:01.996Z,85.20
2022-11-08T07:00:28.891Z,84.20
2022-11-08T07:02:56.466Z,84.70
2022-11-08T07:05:23.504Z,85.30
2022-11-08T07:07:52.372Z,85.60
2022-11-08T07:10:19.485Z,86.30
2022-11-08T07:12:46.302Z,84.30
2022-11-08T07:15:13.354Z,84.40
2022-11-08T07:17:39.870Z,83.70
2022-11-08T07:20:06.928Z,82.70
2022-11-08T07:22:33.469Z,80.80
2022-11-08T07:25:00.190Z,79.40
2022-11-08T07:27:27.354Z,77.30
2022-11-08T07:29:53.865Z,77.40
2022-11-08T07:32:20.409Z,77.00
2022-11-08T07:34:46.967Z,73.30
2022-11-08T07:37:13.485Z,69.10
2022-11-08T07:39:40.024Z,64.10
2022-11-08T07:42:06.598Z,56.80
2022-11-08T07:44:33.123Z,50.00
2022-11-08T07:46:59.621Z,45.00
2022-11-08T07:49:26.145Z,41.40
2022-11-08T07:51:52.708Z,38.80
2022-11-08T07:54:22.322Z,34.70
2022-11-08T07:56:48.961Z,26.80
2022-11-08T07:59:18.919Z,23.80
2022-11-08T08:01:45.522Z,21.20
2022-11-08T08:04:12.614Z,16.90
2022-11-08T08:06:39.206Z,13.60
2022-11-08T08:09:05.831Z,14.10
2022-11-08T08:11:33.902Z,14.40
2022-11-08T08:14:00.660Z,12.30
2022-11-08T08:16:27.181Z,11.50
2022-11-08T08:18:56.643Z,4.90
2022-11-08T08:21:23.577Z,7.50
2022-11-08T08:23:50.131Z,3.60
2022-11-08T08:26:17.323Z,1.00
2022-11-08T08:28:43.868Z,1.00
2022-11-08T08:31:10.406Z,1.00
2022-11-08T08:33:37.843Z,1.00
2022-11-08T08:36:04.952Z,1.00
2022-11-08T08:38:32.574Z,1.00
2022-11-08T08:40:59.471Z,1.00
2022-11-08T08:43:27.611Z,1.00
2022-11-08T08:45:54.561Z,1.00
2022-11-08T08:48:21.133Z,1.00
2022-11-08T08:50:48.199Z,1.00
2022-11-08T08:53:14.849Z,1.00
2022-11-08T08:55:42.764Z,1.00
2022-11-08T08:58:09.651Z,1.00
2022-11-08T09:03:22.895Z,1.90
2022-11-08T09:05:49.438Z,3.40
2022-11-08T09:08:15.998Z,1.80
2022-11-08T09:10:43.180Z,1.00
2022-11-08T09:13:09.797Z,1.00
2022-11-08T09:15:36.489Z,1.00
2022-11-08T09:18:03.226Z,1.00
2022-11-08T09:20:29.840Z,1.00
2022-11-08T09:23:00.926Z,1.00
2022-11-08T09:25:27.460Z,1.00
2022-11-08T09:27:54.585Z,1.00
2022-11-08T09:30:21.206Z,1.00
2022-11-08T09:33:00.407Z,3.20
2022-11-08T09:35:27.686Z,4.00
2022-11-08T09:37:54.439Z,1.00
2022-11-08T09:40:23.659Z,1.00
2022-11-08T09:42:57.321Z,1.00
2022-11-08T09:45:26.023Z,1.00
2022-11-08T09:48:04.842Z,1.00
2022-11-08T09:50:35.391Z,1.00
2022-11-08T09:53:20.799Z,1.00
2022-11-08T09:55:52.647Z,1.00
2022-11-08T09:58:28.194Z,1.00
2022-11-08T10:00:54.812Z,1.00
2022-11-08T10:03:23.369Z,1.00
2022-11-08T10:05:59.025Z,1.00
2022-11-08T10:08:28.510Z,1.00
2022-11-08T10:11:07.325Z,1.00
2022-11-08T10:14:00.571Z,1.00
2022-11-08T10:16:37.563Z,1.00
2022-11-08T10:19:23.178Z,1.00
2022-11-08T10:21:58.723Z,1.00
2022-11-08T10:24:54.439Z,1.00
2022-11-08T10:27:30.279Z,1.00
2022-11-08T10:30:00.097Z,1.00
2022-11-08T10:32:29.132Z,1.00
2022-11-08T10:34:58.860Z,1.00
2022-11-08T10:37:25.971Z,1.00
2022-11-08T10:40:01.986Z,1.00
2022-11-08T10:42:41.745Z,1.00
2022-11-08T10:45:09.537Z,1.00
2022-11-08T10:47:36.849Z,1.00
2022-11-08T10:50:17.882Z,1.00
2022-11-08T10:52:46.775Z,1.00
2022-11-08T10:55:27.078Z,1.00
2022-11-08T10:57:53.658Z,1.00
2022-11-08T11:00:20.271Z,1.00
2022-11-08T11:02:49.832Z,1.00
2022-11-08T11:05:16.415Z,1.00
2022-11-08T11:07:46.928Z,1.00
2022-11-08T11:10:24.865Z,1.00
2022-11-08T11:12:59.798Z,1.00
2022-11-08T11:15:35.484Z,1.00
2022-11-08T11:18:02.652Z,1.00
2022-11-08T11:20:29.445Z,1.00
2022-11-08T11:22:57.451Z,1.00
2022-11-08T11:25:24.102Z,1.00
2022-11-08T11:27:58.346Z,1.00
2022-11-08T11:30:29.199Z,1.00
2022-11-08T11:33:18.845Z,1.00
2022-11-08T11:36:13.329Z,1.00
2022-11-08T11:38:46.326Z,1.00
2022-11-08T11:41:15.561Z,1.00
2022-11-08T11:43:45.113Z,1.00
2022-11-08T11:46:11.623Z,1.00
2022-11-08T11:48:56.995Z,1.00
2022-11-08T11:51:25.965Z,1.00
2022-11-08T11:53:52.536Z,1.00
2022-11-08T11:56:41.322Z,1.00
2022-11-08T11:59:17.728Z,1.00
2022-11-08T12:01:44.299Z,1.00
2022-11-08T12:04:29.746Z,1.00
2022-11-08T12:07:09.237Z,1.00
2022-11-08T12:09:47.525Z,1.00
2022-11-08T12:12:32.867Z,1.00
2022-11-08T12:15:07.697Z,1.00
2022-11-08T12:17:51.052Z,1.00
2022-11-08T12:20:36.012Z,1.00
2022-11-08T12:23:02.563Z,1.00
2022-11-08T12:25:32.669Z,1.00
2022-11-08T12:28:19.968Z,1.00
2022-11-08T12:30:50.450Z,1.00
2022-11-08T12:33:25.090Z,1.00
2022-11-08T12:36:03.143Z,1.00
2022-11-08T12:38:32.486Z,1.00
2022-11-08T12:41:08.958Z,1.00
2022-11-08T12:43:38.329Z,1.00
2022-11-08T12:46:18.099Z,1.00
2022-11-08T12:48:50.761Z,1.00
2022-11-08T12:51:32.800Z,1.00
2022-11-08T12:54:10.514Z,1.00
2022-11-08T12:56:39.297Z,1.00
2022-11-08T12:59:12.145Z,1.00
2022-11-08T13:01:38.887Z,1.00
2022-11-08T13:04:23.989Z,1.00
2022-11-08T13:07:22.756Z,1.00
2022-11-08T13:09:55.166Z,1.00
2022-11-08T13:12:26.181Z,1.00
2022-11-08T13:14:52.794Z,1.00
2022-11-08T13:17:22.814Z,1.00
2022-11-08T13:19:52.481Z,1.00
2022-11-08T13:22:47.608Z,1.00
2022-11-08T13:25:33.002Z,1.00
2022-11-08T13:27:59.559Z,1.00
2022-11-08T13:30:26.127Z,1.00
2022-11-08T13:33:06.822Z,1.00
2022-11-08T13:35:48.770Z,1.00
2022-11-08T13:38:19.710Z,1.00
2022-11-08T13:41:05.284Z,1.00
2022-11-08T13:43:32.911Z,1.00
2022-11-08T13:46:18.295Z,1.00
2022-11-08T13:49:03.565Z,1.00
2022-11-08T13:51:37.384Z,1.00
2022-11-08T13:54:22.308Z,1.00
2022-11-08T13:56:52.017Z,1.00
2022-11-08T13:59:31.058Z,1.00
2022-11-08T14:01:57.736Z,1.00
2022-11-08T14:04:25.839Z,1.00
2022-11-08T14:06:59.283Z,1.00
2022-11-08T14:09:29.302Z,1.00
2022-11-08T14:12:05.872Z,1.00
2022-11-08T14:14:42.157Z,1.00
2022-11-08T14:17:27.613Z,1.00
2022-11-08T14:19:56.047Z,1.00
2022-11-08T14:22:24.677Z,1.00
2022-11-08T14:24:52.781Z,1.00
2022-11-08T14:27:33.647Z,1.00
2022-11-08T14:30:00.343Z,1.00
2022-11-08T14:32:27.035Z,1.00
2022-11-08T14:35:09.746Z,1.00
2022-11-08T14:37:37.116Z,1.00
2022-11-08T14:40:04.369Z,1.00
2022-11-08T14:42:32.057Z,1.00
2022-11-08T14:44:58.829Z,1.00
2022-11-08T14:47:27.148Z,1.00
2022-11-08T14:49:53.712Z,1.00
2022-11-08T14:52:25.811Z,1.00
2022-11-08T14:55:03.616Z,1.00
2022-11-08T14:57:35.492Z,1.00
2022-11-08T15:00:05.453Z,1.00
2022-11-08T15:02:32.465Z,1.00
2022-11-08T15:04:59.294Z,1.10
2022-11-08T15:07:26.192Z,2.20
2022-11-08T15:09:53.298Z,3.10
2022-11-08T15:12:24.267Z,4.20
2022-11-08T15:14:53.444Z,4.10
2022-11-08T15:17:36.785Z,4.10
2022-11-08T15:20:06.990Z,4.10
2022-11-08T15:22:34.739Z,5.20
2022-11-08T15:25:02.450Z,5.60
2022-11-08T15:27:29.320Z,6.70
2022-11-08T15:30:09.102Z,7.20
2022-11-08T15:32:37.545Z,7.90
2022-11-08T15:35:05.039Z,8.60
2022-11-08T15:37:39.130Z,8.60
2022-11-08T15:40:07.305Z,9.70
2022-11-08T15:42:34.736Z,10.00
2022-11-08T15:45:01.383Z,10.90
2022-11-08T15:47:37.103Z,11.30
2022-11-08T15:50:12.391Z,11.50
2022-11-08T15:52:38.911Z,13.10
2022-11-08T15:55:05.665Z,13.00
2022-11-08T15:57:32.274Z,13.00
2022-11-08T15:59:58.791Z,13.10
2022-11-08T16:02:25.364Z,14.50
2022-11-08T16:04:51.908Z,15.10
2022-11-08T16:07:18.508Z,15.50
2022-11-08T16:09:45.119Z,16.70
2022-11-08T16:12:14.237Z,17.10
2022-11-08T16:14:41.097Z,17.50
2022-11-08T16:17:12.688Z,17.60
2022-11-08T16:19:39.232Z,18.70
2022-11-08T16:22:07.434Z,19.30
2022-11-08T16:24:34.006Z,20.40
2022-11-08T16:27:01.251Z,20.10
2022-11-08T16:29:29.221Z,19.90
2022-11-08T16:31:55.817Z,20.10
2022-11-08T16:34:22.404Z,20.70
2022-11-08T16:36:49.315Z,19.10
2022-11-08T16:39:17.166Z,18.40
2022-11-08T16:41:43.739Z,17.80
2022-11-08T16:44:10.374Z,17.20
2022-11-08T16:46:37.491Z,17.00
2022-11-08T16:49:04.860Z,17.00
2022-11-08T16:51:31.782Z,16.80
2022-11-08T16:53:58.336Z,16.90
2022-11-08T16:56:24.862Z,16.80
2022-11-08T16:58:51.490Z,16.90
2022-11-08T17:01:20.811Z,16.80
2022-11-08T17:03:47.596Z,16.80
2022-11-08T17:06:16.439Z,15.90
2022-11-08T17:08:43.577Z,16.80
2022-11-08T17:11:15.090Z,16.90
2022-11-08T17:13:41.643Z,17.60
2022-11-08T17:16:11.500Z,16.80
2022-11-08T17:18:38.465Z,16.80
2022-11-08T17:21:42.549Z,16.80
2022-11-08T17:23:59.012Z,16.80
2022-11-08T17:26:25.601Z,17.20
2022-11-08T17:28:54.867Z,17.40
2022-11-08T17:31:21.423Z,18.10
2022-11-08T17:33:48.262Z,19.60
2022-11-08T17:36:14.817Z,21.20
2022-11-08T17:38:41.817Z,21.20
2022-11-08T17:41:12.511Z,21.20
2022-11-08T17:43:39.522Z,22.20
2022-11-08T17:46:06.402Z,23.30
2022-11-08T17:48:33.477Z,23.70
2022-11-08T17:51:00.426Z,23.20
2022-11-08T17:53:27.329Z,23.60
2022-11-08T17:55:57.921Z,23.70
2022-11-08T17:58:25.929Z,23.50
2022-11-08T18:00:53.415Z,23.40
2022-11-08T18:03:20.840Z,23.30
2022-11-08T18:05:57.802Z,24.00
2022-11-08T18:08:27.144Z,24.10
2022-11-08T18:10:55.497Z,24.50
2022-11-08T18:13:22.978Z,25.40
2022-11-08T18:15:49.851Z,26.20
2022-11-08T18:18:16.864Z,27.10
2022-11-08T18:20:43.577Z,28.50
2022-11-08T18:23:12.966Z,28.10
2022-11-08T18:25:39.606Z,27.50
2022-11-08T18:28:06.245Z,28.10
2022-11-08T18:30:33.086Z,28.90
2022-11-08T18:32:59.638Z,29.60
2022-11-08T18:35:28.157Z,29.60
2022-11-08T18:37:55.583Z,29.60
2022-11-08T18:40:22.533Z,29.50
2022-11-08T18:42:49.081Z,30.20
2022-11-08T18:45:15.697Z,30.90
2022-11-08T18:47:42.262Z,31.90
2022-11-08T18:50:09.631Z,32.60
2022-11-08T18:52:36.868Z,33.00
2022-11-08T18:55:04.502Z,33.20
2022-11-08T18:57:31.063Z,34.20
2022-11-08T19:00:01.020Z,34.40
2022-11-08T19:02:27.895Z,35.00
2022-11-08T19:04:54.483Z,36.70
2022-11-08T19:07:21.071Z,37.00
2022-11-08T19:09:47.662Z,37.20
2022-11-08T19:12:14.247Z,38.40
2022-11-08T19:14:40.846Z,40.10
2022-11-08T19:17:07.395Z,40.10
2022-11-08T19:19:34.103Z,40.20
2022-11-08T19:22:00.727Z,40.20
2022-11-08T19:24:27.326Z,40.20
2022-11-08T19:26:53.868Z,41.90
2022-11-08T19:29:20.824Z,42.80
2022-11-08T19:31:47.550Z,43.80
2022-11-08T19:34:14.250Z,44.60
2022-11-08T19:36:43.544Z,44.80
2022-11-08T19:39:13.509Z,45.30
2022-11-08T19:41:40.222Z,45.40
2022-11-08T19:44:07.140Z,46.10
2022-11-08T19:46:34.131Z,46.60
2022-11-08T19:49:02.196Z,46.10
2022-11-08T19:51:29.756Z,46.90
2022-11-08T19:53:57.429Z,46.50
2022-11-08T19:56:38.074Z,46.70
2022-11-08T19:59:11.054Z,46.90
2022-11-08T20:01:39.895Z,46.50
2022-11-08T20:04:08.026Z,46.90
2022-11-08T20:06:35.032Z,47.10
2022-11-08T20:09:02.038Z,47.00
2022-11-08T20:11:29.899Z,47.70
2022-11-08T20:13:56.904Z,47.50
2022-11-08T20:16:26.615Z,47.40
2022-11-08T20:18:53.978Z,47.40
2022-11-08T20:21:20.890Z,48.10
2022-11-08T20:23:47.881Z,48.40
2022-11-08T20:26:16.454Z,49.50
2022-11-08T20:28:55.181Z,49.60
2022-11-08T20:31:23.141Z,50.30
2022-11-08T20:33:50.542Z,50.40
2022-11-08T20:36:18.009Z,50.40
2022-11-08T20:38:44.857Z,50.40
2022-11-08T20:41:13.322Z,50.10
2022-11-08T20:43:43.574Z,49.50
2022-11-08T20:46:17.264Z,50.10
2022-11-08T20:48:44.334Z,50.50
2022-11-08T20:51:12.410Z,49.60
2022-11-08T20:53:39.450Z,50.40
2022-11-08T20:56:07.672Z,50.00
2022-11-08T20:58:34.962Z,50.10
2022-11-08T21:01:02.190Z,50.30
2022-11-08T21:03:29.108Z,50.70
2022-11-08T21:06:02.830Z,50.40
2022-11-08T21:08:58.497Z,50.40
2022-11-08T21:11:16.814Z,50.40
2022-11-08T21:13:44.102Z,50.30
2022-11-08T21:16:28.711Z,50.30
2022-11-08T21:18:57.457Z,50.70
2022-11-08T21:21:24.463Z,51.20
2022-11-08T21:23:51.346Z,51.00
2022-11-08T21:26:19.078Z,52.00
2022-11-08T21:28:46.140Z,52.60
2022-11-08T21:31:13.074Z,52.90
2022-11-08T21:33:39.598Z,53.60
2022-11-08T21:36:06.254Z,54.20
2022-11-08T21:38:35.211Z,54.90
2022-11-08T21:41:05.800Z,55.20
2022-11-08T21:43:39.635Z,56.10
2022-11-08T21:46:19.934Z,56.80
2022-11-08T21:48:47.455Z,57.50
2022-11-08T21:51:14.531Z,57.70
2022-11-08T21:53:49.645Z,58.00
2022-11-08T21:56:20.788Z,58.10
2022-11-08T21:58:47.347Z,59.30
2022-11-08T22:01:14.004Z,59.60
2022-11-08T22:03:40.570Z,60.40
2022-11-08T22:06:07.244Z,60.20
2022-11-08T22:08:33.874Z,59.30
2022-11-08T22:11:00.380Z,59.20
2022-11-08T22:13:27.709Z,58.50
2022-11-08T22:15:54.267Z,58.50
2022-11-08T22:18:31.120Z,57.90
2022-11-08T22:21:26.295Z,57.90
2022-11-08T22:23:52.851Z,57.70
2022-11-08T22:26:19.364Z,58.20
2022-11-08T22:28:45.930Z,59.00
2022-11-08T22:31:12.462Z,58.80
2022-11-08T22:33:39.001Z,58.50
2022-11-08T22:36:05.662Z,58.90
2022-11-08T22:38:32.229Z,58.10
2022-11-08T22:40:58.771Z,57.90
2022-11-08T22:43:25.317Z,57.20
2022-11-08T22:45:51.906Z,57.20
2022-11-08T22:48:18.838Z,56.70
2022-11-08T22:50:45.730Z,56.90
2022-11-08T22:53:12.252Z,56.40
2022-11-08T22:55:38.804Z,56.60
2022-11-08T22:58:05.453Z,56.10
2022-11-08T23:00:31.947Z,55.80
2022-11-08T23:02:58.506Z,55.50
2022-11-08T23:05:25.049Z,55.90
2022-11-08T23:07:51.620Z,55.40
2022-11-08T23:10:18.190Z,55.40
2022-11-08T23:13:03.610Z,54.90
2022-11-08T23:15:51.770Z,54.70
2022-11-08T23:18:18.705Z,54.90
2022-11-08T23:21:04.045Z,54.40
2022-11-08T23:24:02.577Z,54.30
2022-11-08T23:26:47.790Z,53.80
2022-11-08T23:29:33.204Z,54.10
2022-11-08T23:31:59.739Z,54.70
2022-11-08T23:34:26.284Z,54.70
2022-11-08T23:36:53.395Z,54.70
2022-11-08T23:39:19.960Z,54.10
2022-11-08T23:42:05.086Z,54.90
2022-11-08T23:44:31.666Z,55.30
2022-11-08T23:46:59.487Z,55.40
2022-11-08T23:49:26.093Z,55.10
2022-11-08T23:51:52.925Z,55.30
2022-11-08T23:54:19.611Z,55.20
2022-11-08T23:56:46.487Z,54.70
2022-11-08T23:59:14.090Z,54.40
